Terminal Aerodrome Forecast
Issued by NWS Bismarck, ND

Home | Current Version | Previous Version | Text Only | Print | Product List | Glossary On
Versions: 1 2 3 4 5 6 7 8 9 10 11 12 13 14 15 16 17 18 19 20 21 22 23
000
FTUS43 KBIS 101732
TAFBIS
TAF
KBIS 101732Z 1018/1118 06006KT P6SM -SN OVC060
     FM102100 10009KT 4SM -SN OVC025
     FM110000 10010KT 4SM -SN OVC015
     FM110500 06007KT 1 1/2SM -SN OVC010
     FM110900 06005KT P6SM VCSH OVC015
     FM111500 33004KT P6SM BKN025=

USA.gov is the U.S. government's official web portal to all federal, state and local government web resources and services.